sensor_id;sensor_type;location;lat;lon;timestamp;temperature;humidity
31387;DHT22;69978;50.096;8.448;2023-06-10T00:01:44;20.00;99.90
31387;DHT22;69978;50.096;8.448;2023-06-10T00:04:15;20.00;99.90
31387;DHT22;69978;50.096;8.448;2023-06-10T00:06:45;20.00;99.90
31387;DHT22;69978;50.096;8.448;2023-06-10T00:09:13;19.90;99.90
31387;DHT22;69978;50.096;8.448;2023-06-10T00:11:40;19.90;99.90
31387;DHT22;69978;50.096;8.448;2023-06-10T00:14:06;19.90;99.90
31387;DHT22;69978;50.096;8.448;2023-06-10T00:16:32;19.90;99.90
31387;DHT22;69978;50.096;8.448;2023-06-10T00:19:00;19.90;99.90
31387;DHT22;69978;50.096;8.448;2023-06-10T00:21:27;19.80;99.90
31387;DHT22;69978;50.096;8.448;2023-06-10T00:23:53;19.80;99.90
31387;DHT22;69978;50.096;8.448;2023-06-10T00:26:21;19.80;99.90
31387;DHT22;69978;50.096;8.448;2023-06-10T00:28:46;19.80;99.90
31387;DHT22;69978;50.096;8.448;2023-06-10T00:31:12;19.80;99.90
31387;DHT22;69978;50.096;8.448;2023-06-10T00:33:38;19.80;99.90
31387;DHT22;69978;50.096;8.448;2023-06-10T00:36:03;19.70;99.90
31387;DHT22;69978;50.096;8.448;2023-06-10T00:38:29;19.70;99.90
31387;DHT22;69978;50.096;8.448;2023-06-10T00:40:55;19.70;99.90
31387;DHT22;69978;50.096;8.448;2023-06-10T00:43:20;19.70;99.90
31387;DHT22;69978;50.096;8.448;2023-06-10T00:45:46;19.70;99.90
31387;DHT22;69978;50.096;8.448;2023-06-10T00:48:11;19.70;99.90
31387;DHT22;69978;50.096;8.448;2023-06-10T00:50:40;19.70;99.90
31387;DHT22;69978;50.096;8.448;2023-06-10T00:53:09;19.70;99.90
31387;DHT22;69978;50.096;8.448;2023-06-10T00:55:35;19.70;99.90
31387;DHT22;69978;50.096;8.448;2023-06-10T00:58:01;19.70;99.90
31387;DHT22;69978;50.096;8.448;2023-06-10T01:00:28;19.70;99.90
31387;DHT22;69978;50.096;8.448;2023-06-10T01:02:53;19.70;99.90
31387;DHT22;69978;50.096;8.448;2023-06-10T01:05:19;19.70;99.90
31387;DHT22;69978;50.096;8.448;2023-06-10T01:08:01;19.60;99.90
31387;DHT22;69978;50.096;8.448;2023-06-10T01:10:41;19.60;99.90
31387;DHT22;69978;50.096;8.448;2023-06-10T01:13:10;19.60;99.90
31387;DHT22;69978;50.096;8.448;2023-06-10T01:15:37;19.50;99.90
31387;DHT22;69978;50.096;8.448;2023-06-10T01:18:08;19.50;99.90
31387;DHT22;69978;50.096;8.448;2023-06-10T01:20:36;19.50;99.90
31387;DHT22;69978;50.096;8.448;2023-06-10T01:23:06;19.50;99.90
31387;DHT22;69978;50.096;8.448;2023-06-10T01:25:32;19.50;99.90
31387;DHT22;69978;50.096;8.448;2023-06-10T01:28:33;19.40;99.90
31387;DHT22;69978;50.096;8.448;2023-06-10T01:31:18;19.40;99.90
31387;DHT22;69978;50.096;8.448;2023-06-10T01:33:51;19.40;99.90
31387;DHT22;69978;50.096;8.448;2023-06-10T01:36:18;19.40;99.90
31387;DHT22;69978;50.096;8.448;2023-06-10T01:38:46;19.40;99.90
31387;DHT22;69978;50.096;8.448;2023-06-10T01:41:13;19.40;99.90
31387;DHT22;69978;50.096;8.448;2023-06-10T01:43:39;19.30;99.90
31387;DHT22;69978;50.096;8.448;2023-06-10T01:46:05;19.30;99.90
31387;DHT22;69978;50.096;8.448;2023-06-10T01:48:32;19.30;99.90
31387;DHT22;69978;50.096;8.448;2023-06-10T01:50:58;19.30;99.90
31387;DHT22;69978;50.096;8.448;2023-06-10T01:53:24;19.20;99.90
31387;DHT22;69978;50.096;8.448;2023-06-10T01:55:49;19.20;99.90
31387;DHT22;69978;50.096;8.448;2023-06-10T01:58:16;19.20;99.90
31387;DHT22;69978;50.096;8.448;2023-06-10T02:00:42;19.20;99.90
31387;DHT22;69978;50.096;8.448;2023-06-10T02:03:07;19.20;99.90
31387;DHT22;69978;50.096;8.448;2023-06-10T02:05:33;19.10;99.90
31387;DHT22;69978;50.096;8.448;2023-06-10T02:07:58;19.10;99.90
31387;DHT22;69978;50.096;8.448;2023-06-10T02:10:24;19.10;99.90
31387;DHT22;69978;50.096;8.448;2023-06-10T02:12:50;19.10;99.90
31387;DHT22;69978;50.096;8.448;2023-06-10T02:15:16;19.10;99.90
31387;DHT22;69978;50.096;8.448;2023-06-10T02:17:41;19.10;99.90
31387;DHT22;69978;50.096;8.448;2023-06-10T02:20:08;19.10;99.90
31387;DHT22;69978;50.096;8.448;2023-06-10T02:22:36;19.10;99.90
31387;DHT22;69978;50.096;8.448;2023-06-10T02:25:02;19.00;99.90
31387;DHT22;69978;50.096;8.448;2023-06-10T02:27:29;19.00;99.90
31387;DHT22;69978;50.096;8.448;2023-06-10T02:29:56;19.00;99.90
31387;DHT22;69978;50.096;8.448;2023-06-10T02:32:21;18.90;99.90
31387;DHT22;69978;50.096;8.448;2023-06-10T02:34:47;18.90;99.90
31387;DHT22;69978;50.096;8.448;2023-06-10T02:37:14;18.90;99.90
31387;DHT22;69978;50.096;8.448;2023-06-10T02:39:40;18.90;99.90
31387;DHT22;69978;50.096;8.448;2023-06-10T02:42:06;18.90;99.90
31387;DHT22;69978;50.096;8.448;2023-06-10T02:44:32;18.80;99.90
31387;DHT22;69978;50.096;8.448;2023-06-10T02:46:57;18.80;99.90
31387;DHT22;69978;50.096;8.448;2023-06-10T02:49:23;18.80;99.90
31387;DHT22;69978;50.096;8.448;2023-06-10T02:51:50;18.80;99.90
31387;DHT22;69978;50.096;8.448;2023-06-10T02:54:21;18.80;99.90
31387;DHT22;69978;50.096;8.448;2023-06-10T02:56:47;18.80;99.90
31387;DHT22;69978;50.096;8.448;2023-06-10T02:59:13;18.80;99.90
31387;DHT22;69978;50.096;8.448;2023-06-10T03:01:39;18.70;99.90
31387;DHT22;69978;50.096;8.448;2023-06-10T03:04:06;18.70;99.90
31387;DHT22;69978;50.096;8.448;2023-06-10T03:06:32;18.70;99.90
31387;DHT22;69978;50.096;8.448;2023-06-10T03:08:59;18.70;99.90
31387;DHT22;69978;50.096;8.448;2023-06-10T03:11:25;18.70;99.90
31387;DHT22;69978;50.096;8.448;2023-06-10T03:13:51;18.70;99.90
31387;DHT22;69978;50.096;8.448;2023-06-10T03:16:19;18.60;99.90
31387;DHT22;69978;50.096;8.448;2023-06-10T03:18:44;18.60;99.90
31387;DHT22;69978;50.096;8.448;2023-06-10T03:21:10;18.60;99.90
31387;DHT22;69978;50.096;8.448;2023-06-10T03:23:36;18.60;99.90
31387;DHT22;69978;50.096;8.448;2023-06-10T03:26:02;18.60;99.90
31387;DHT22;69978;50.096;8.448;2023-06-10T03:28:27;18.60;99.90
31387;DHT22;69978;50.096;8.448;2023-06-10T03:30:53;18.50;99.90
31387;DHT22;69978;50.096;8.448;2023-06-10T03:33:19;18.50;99.90
31387;DHT22;69978;50.096;8.448;2023-06-10T03:35:45;18.50;99.90
31387;DHT22;69978;50.096;8.448;2023-06-10T03:38:11;18.50;99.90
31387;DHT22;69978;50.096;8.448;2023-06-10T03:40:36;18.50;99.90
31387;DHT22;69978;50.096;8.448;2023-06-10T03:43:02;18.40;99.90
31387;DHT22;69978;50.096;8.448;2023-06-10T03:45:28;18.40;99.90
31387;DHT22;69978;50.096;8.448;2023-06-10T03:47:53;18.40;99.90
31387;DHT22;69978;50.096;8.448;2023-06-10T03:50:19;18.40;99.90
31387;DHT22;69978;50.096;8.448;2023-06-10T03:52:45;18.40;99.90
31387;DHT22;69978;50.096;8.448;2023-06-10T03:55:12;18.40;99.90
31387;DHT22;69978;50.096;8.448;2023-06-10T03:57:39;18.40;99.90
31387;DHT22;69978;50.096;8.448;2023-06-10T04:00:05;18.40;99.90
31387;DHT22;69978;50.096;8.448;2023-06-10T04:02:37;18.40;99.90
31387;DHT22;69978;50.096;8.448;2023-06-10T04:05:07;18.40;99.90
31387;DHT22;69978;50.096;8.448;2023-06-10T04:07:33;18.40;99.90
31387;DHT22;69978;50.096;8.448;2023-06-10T04:09:59;18.40;99.90
31387;DHT22;69978;50.096;8.448;2023-06-10T04:12:25;18.40;99.90
31387;DHT22;69978;50.096;8.448;2023-06-10T04:14:50;18.40;99.90
31387;DHT22;69978;50.096;8.448;2023-06-10T04:17:16;18.40;99.90
31387;DHT22;69978;50.096;8.448;2023-06-10T04:19:42;18.40;99.90
31387;DHT22;69978;50.096;8.448;2023-06-10T04:22:07;18.40;99.90
31387;DHT22;69978;50.096;8.448;2023-06-10T04:24:33;18.40;99.90
31387;DHT22;69978;50.096;8.448;2023-06-10T04:26:59;18.40;99.90
31387;DHT22;69978;50.096;8.448;2023-06-10T04:29:24;18.50;99.90
31387;DHT22;69978;50.096;8.448;2023-06-10T04:31:50;18.50;99.90
31387;DHT22;69978;50.096;8.448;2023-06-10T04:34:16;18.50;99.90
31387;DHT22;69978;50.096;8.448;2023-06-10T04:36:41;18.60;99.90
31387;DHT22;69978;50.096;8.448;2023-06-10T04:39:07;18.60;99.90
31387;DHT22;69978;50.096;8.448;2023-06-10T04:41:33;18.60;99.90
31387;DHT22;69978;50.096;8.448;2023-06-10T04:43:58;18.60;99.90
31387;DHT22;69978;50.096;8.448;2023-06-10T04:46:24;18.60;99.90
31387;DHT22;69978;50.096;8.448;2023-06-10T04:48:50;18.70;99.90
31387;DHT22;69978;50.096;8.448;2023-06-10T04:51:15;18.70;99.90
31387;DHT22;69978;50.096;8.448;2023-06-10T04:53:42;18.70;99.90
31387;DHT22;69978;50.096;8.448;2023-06-10T04:56:08;18.80;99.90
31387;DHT22;69978;50.096;8.448;2023-06-10T04:58:33;18.80;99.90
31387;DHT22;69978;50.096;8.448;2023-06-10T05:00:59;18.90;99.90
31387;DHT22;69978;50.096;8.448;2023-06-10T05:03:25;18.90;99.90
31387;DHT22;69978;50.096;8.448;2023-06-10T05:05:51;18.90;99.90
31387;DHT22;69978;50.096;8.448;2023-06-10T05:08:17;19.00;99.90
31387;DHT22;69978;50.096;8.448;2023-06-10T05:10:42;19.00;99.90
31387;DHT22;69978;50.096;8.448;2023-06-10T05:13:08;19.00;99.90
31387;DHT22;69978;50.096;8.448;2023-06-10T05:15:33;19.00;99.90
31387;DHT22;69978;50.096;8.448;2023-06-10T05:17:59;19.10;99.90
31387;DHT22;69978;50.096;8.448;2023-06-10T05:20:25;19.20;99.90
31387;DHT22;69978;50.096;8.448;2023-06-10T05:22:51;19.20;99.90
31387;DHT22;69978;50.096;8.448;2023-06-10T05:25:17;19.20;99.90
31387;DHT22;69978;50.096;8.448;2023-06-10T05:27:43;19.30;99.90
31387;DHT22;69978;50.096;8.448;2023-06-10T05:30:10;19.30;99.90
31387;DHT22;69978;50.096;8.448;2023-06-10T05:32:36;19.30;99.90
31387;DHT22;69978;50.096;8.448;2023-06-10T05:35:01;19.40;99.90
31387;DHT22;69978;50.096;8.448;2023-06-10T05:37:29;19.50;99.90
31387;DHT22;69978;50.096;8.448;2023-06-10T05:39:54;19.50;99.90
31387;DHT22;69978;50.096;8.448;2023-06-10T05:42:20;19.60;99.90
31387;DHT22;69978;50.096;8.448;2023-06-10T05:44:45;19.60;99.90
31387;DHT22;69978;50.096;8.448;2023-06-10T05:47:11;19.70;99.90
31387;DHT22;69978;50.096;8.448;2023-06-10T05:49:37;19.80;99.90
31387;DHT22;69978;50.096;8.448;2023-06-10T05:52:02;19.90;99.90
31387;DHT22;69978;50.096;8.448;2023-06-10T05:54:28;19.90;99.90
31387;DHT22;69978;50.096;8.448;2023-06-10T05:56:53;20.00;99.90
31387;DHT22;69978;50.096;8.448;2023-06-10T05:59:19;20.10;99.90
31387;DHT22;69978;50.096;8.448;2023-06-10T06:01:45;20.10;99.90
31387;DHT22;69978;50.096;8.448;2023-06-10T06:04:10;20.20;99.90
31387;DHT22;69978;50.096;8.448;2023-06-10T06:06:38;20.30;99.90
31387;DHT22;69978;50.096;8.448;2023-06-10T06:09:04;20.40;99.90
31387;DHT22;69978;50.096;8.448;2023-06-10T06:11:30;20.40;99.90
31387;DHT22;69978;50.096;8.448;2023-06-10T06:13:56;20.50;99.90
31387;DHT22;69978;50.096;8.448;2023-06-10T06:16:21;20.50;99.90
31387;DHT22;69978;50.096;8.448;2023-06-10T06:18:47;20.60;99.90
31387;DHT22;69978;50.096;8.448;2023-06-10T06:21:12;20.70;99.90
31387;DHT22;69978;50.096;8.448;2023-06-10T06:23:38;20.70;99.90
31387;DHT22;69978;50.096;8.448;2023-06-10T06:26:03;20.80;99.90
31387;DHT22;69978;50.096;8.448;2023-06-10T06:28:29;20.90;99.90
31387;DHT22;69978;50.096;8.448;2023-06-10T06:30:56;21.00;99.90
31387;DHT22;69978;50.096;8.448;2023-06-10T06:33:22;21.00;99.90
31387;DHT22;69978;50.096;8.448;2023-06-10T06:35:48;21.10;99.90
31387;DHT22;69978;50.096;8.448;2023-06-10T06:38:13;21.10;99.90
31387;DHT22;69978;50.096;8.448;2023-06-10T06:40:39;21.20;99.90
31387;DHT22;69978;50.096;8.448;2023-06-10T06:43:04;21.30;99.90
31387;DHT22;69978;50.096;8.448;2023-06-10T06:45:30;21.30;99.90
31387;DHT22;69978;50.096;8.448;2023-06-10T06:47:55;21.40;99.90
31387;DHT22;69978;50.096;8.448;2023-06-10T06:50:21;21.40;99.90
31387;DHT22;69978;50.096;8.448;2023-06-10T06:52:47;21.50;99.90
31387;DHT22;69978;50.096;8.448;2023-06-10T06:55:12;21.60;99.90
31387;DHT22;69978;50.096;8.448;2023-06-10T06:57:38;21.60;99.90
31387;DHT22;69978;50.096;8.448;2023-06-10T07:00:04;21.70;99.90
31387;DHT22;69978;50.096;8.448;2023-06-10T07:02:30;21.70;99.90
31387;DHT22;69978;50.096;8.448;2023-06-10T07:04:57;21.80;99.90
31387;DHT22;69978;50.096;8.448;2023-06-10T07:07:24;21.80;99.90
31387;DHT22;69978;50.096;8.448;2023-06-10T07:09:50;21.90;99.90
31387;DHT22;69978;50.096;8.448;2023-06-10T07:12:15;21.90;99.90
31387;DHT22;69978;50.096;8.448;2023-06-10T07:14:41;22.00;99.90
31387;DHT22;69978;50.096;8.448;2023-06-10T07:17:06;22.10;99.90
31387;DHT22;69978;50.096;8.448;2023-06-10T07:19:32;22.20;99.90
31387;DHT22;69978;50.096;8.448;2023-06-10T07:21:58;22.20;99.90
31387;DHT22;69978;50.096;8.448;2023-06-10T07:24:23;22.30;99.90
31387;DHT22;69978;50.096;8.448;2023-06-10T07:26:49;22.40;99.90
31387;DHT22;69978;50.096;8.448;2023-06-10T07:29:14;22.50;99.90
31387;DHT22;69978;50.096;8.448;2023-06-10T07:31:41;22.50;99.90
31387;DHT22;69978;50.096;8.448;2023-06-10T07:34:06;22.60;99.90
31387;DHT22;69978;50.096;8.448;2023-06-10T07:36:32;22.70;99.90
31387;DHT22;69978;50.096;8.448;2023-06-10T07:38:57;22.80;99.90
31387;DHT22;69978;50.096;8.448;2023-06-10T07:41:23;22.90;99.90
31387;DHT22;69978;50.096;8.448;2023-06-10T07:43:51;23.00;99.90
31387;DHT22;69978;50.096;8.448;2023-06-10T07:46:23;23.00;99.90
31387;DHT22;69978;50.096;8.448;2023-06-10T07:48:49;23.20;99.90
31387;DHT22;69978;50.096;8.448;2023-06-10T07:51:16;23.20;99.90
31387;DHT22;69978;50.096;8.448;2023-06-10T07:53:42;23.30;99.90
31387;DHT22;69978;50.096;8.448;2023-06-10T07:56:07;23.40;99.90
31387;DHT22;69978;50.096;8.448;2023-06-10T07:58:33;23.50;99.90
31387;DHT22;69978;50.096;8.448;2023-06-10T08:00:58;23.50;99.90
31387;DHT22;69978;50.096;8.448;2023-06-10T08:03:24;23.60;99.90
31387;DHT22;69978;50.096;8.448;2023-06-10T08:05:50;23.70;99.90
31387;DHT22;69978;50.096;8.448;2023-06-10T08:08:15;23.80;99.90
31387;DHT22;69978;50.096;8.448;2023-06-10T08:10:41;23.90;99.90
31387;DHT22;69978;50.096;8.448;2023-06-10T08:13:07;23.90;99.90
31387;DHT22;69978;50.096;8.448;2023-06-10T08:15:33;24.00;99.90
31387;DHT22;69978;50.096;8.448;2023-06-10T08:17:59;24.10;99.90
31387;DHT22;69978;50.096;8.448;2023-06-10T08:20:24;24.20;99.90
31387;DHT22;69978;50.096;8.448;2023-06-10T08:22:50;24.30;99.90
31387;DHT22;69978;50.096;8.448;2023-06-10T08:25:15;24.40;99.90
31387;DHT22;69978;50.096;8.448;2023-06-10T08:27:41;24.50;99.90
31387;DHT22;69978;50.096;8.448;2023-06-10T08:30:07;24.50;99.90
31387;DHT22;69978;50.096;8.448;2023-06-10T08:32:33;24.70;99.90
31387;DHT22;69978;50.096;8.448;2023-06-10T08:34:59;24.80;99.90
31387;DHT22;69978;50.096;8.448;2023-06-10T08:37:24;24.80;99.90
31387;DHT22;69978;50.096;8.448;2023-06-10T08:39:50;24.90;99.90
31387;DHT22;69978;50.096;8.448;2023-06-10T08:42:28;25.00;99.90
31387;DHT22;69978;50.096;8.448;2023-06-10T08:44:58;25.20;99.90
31387;DHT22;69978;50.096;8.448;2023-06-10T08:47:29;25.40;99.90
31387;DHT22;69978;50.096;8.448;2023-06-10T08:49:57;25.60;99.90
31387;DHT22;69978;50.096;8.448;2023-06-10T08:52:29;26.60;99.90
31387;DHT22;69978;50.096;8.448;2023-06-10T08:55:03;27.50;99.90
31387;DHT22;69978;50.096;8.448;2023-06-10T08:57:30;27.90;99.90
31387;DHT22;69978;50.096;8.448;2023-06-10T08:59:57;28.00;99.90
31387;DHT22;69978;50.096;8.448;2023-06-10T09:02:24;28.00;99.90
31387;DHT22;69978;50.096;8.448;2023-06-10T09:04:50;28.20;99.90
31387;DHT22;69978;50.096;8.448;2023-06-10T09:07:16;28.20;99.90
31387;DHT22;69978;50.096;8.448;2023-06-10T09:09:43;28.40;99.90
31387;DHT22;69978;50.096;8.448;2023-06-10T09:12:09;28.40;99.90
31387;DHT22;69978;50.096;8.448;2023-06-10T09:14:35;28.50;99.90
31387;DHT22;69978;50.096;8.448;2023-06-10T09:17:02;28.60;99.90
31387;DHT22;69978;50.096;8.448;2023-06-10T09:19:28;29.00;99.90
31387;DHT22;69978;50.096;8.448;2023-06-10T09:21:54;29.40;99.90
31387;DHT22;69978;50.096;8.448;2023-06-10T09:24:22;29.70;99.90
31387;DHT22;69978;50.096;8.448;2023-06-10T09:26:48;30.00;99.90
31387;DHT22;69978;50.096;8.448;2023-06-10T09:29:13;30.00;99.90
31387;DHT22;69978;50.096;8.448;2023-06-10T09:31:39;30.40;99.90
31387;DHT22;69978;50.096;8.448;2023-06-10T09:34:11;30.50;99.90
31387;DHT22;69978;50.096;8.448;2023-06-10T09:36:37;30.80;99.90
31387;DHT22;69978;50.096;8.448;2023-06-10T09:39:03;30.80;99.90
31387;DHT22;69978;50.096;8.448;2023-06-10T09:41:39;30.90;99.90
31387;DHT22;69978;50.096;8.448;2023-06-10T09:44:16;31.60;99.90
31387;DHT22;69978;50.096;8.448;2023-06-10T09:46:42;32.20;99.90
31387;DHT22;69978;50.096;8.448;2023-06-10T09:49:10;33.30;99.90
31387;DHT22;69978;50.096;8.448;2023-06-10T09:51:36;34.00;99.90
31387;DHT22;69978;50.096;8.448;2023-06-10T09:54:04;34.10;99.90
31387;DHT22;69978;50.096;8.448;2023-06-10T09:56:34;34.60;99.90
31387;DHT22;69978;50.096;8.448;2023-06-10T09:59:00;34.00;99.90
31387;DHT22;69978;50.096;8.448;2023-06-10T10:01:26;33.70;99.90
31387;DHT22;69978;50.096;8.448;2023-06-10T10:03:52;33.60;99.90
31387;DHT22;69978;50.096;8.448;2023-06-10T10:06:19;33.30;99.90
31387;DHT22;69978;50.096;8.448;2023-06-10T10:08:49;33.40;99.90
31387;DHT22;69978;50.096;8.448;2023-06-10T10:11:17;33.40;99.90
31387;DHT22;69978;50.096;8.448;2023-06-10T10:13:45;33.40;99.90
31387;DHT22;69978;50.096;8.448;2023-06-10T10:16:16;33.50;99.90
31387;DHT22;69978;50.096;8.448;2023-06-10T10:18:49;33.40;99.90
31387;DHT22;69978;50.096;8.448;2023-06-10T10:21:22;33.60;99.90
31387;DHT22;69978;50.096;8.448;2023-06-10T10:23:53;33.90;99.90
31387;DHT22;69978;50.096;8.448;2023-06-10T10:26:25;34.00;99.90
31387;DHT22;69978;50.096;8.448;2023-06-10T10:31:42;34.30;99.90
31387;DHT22;69978;50.096;8.448;2023-06-10T10:34:13;34.00;99.90
31387;DHT22;69978;50.096;8.448;2023-06-10T10:36:41;33.40;99.90
31387;DHT22;69978;50.096;8.448;2023-06-10T10:39:07;33.30;99.90
31387;DHT22;69978;50.096;8.448;2023-06-10T10:41:34;33.80;99.90
31387;DHT22;69978;50.096;8.448;2023-06-10T10:44:01;34.10;99.90
31387;DHT22;69978;50.096;8.448;2023-06-10T10:46:27;34.30;99.90
31387;DHT22;69978;50.096;8.448;2023-06-10T10:48:54;34.60;99.90
31387;DHT22;69978;50.096;8.448;2023-06-10T10:51:21;34.90;99.90
31387;DHT22;69978;50.096;8.448;2023-06-10T10:54:43;35.40;99.90
31387;DHT22;69978;50.096;8.448;2023-06-10T10:57:09;35.10;99.90
31387;DHT22;69978;50.096;8.448;2023-06-10T10:59:44;35.60;99.90
31387;DHT22;69978;50.096;8.448;2023-06-10T11:02:14;35.50;99.90
31387;DHT22;69978;50.096;8.448;2023-06-10T11:04:48;35.90;99.90
31387;DHT22;69978;50.096;8.448;2023-06-10T11:07:14;35.90;99.90
31387;DHT22;69978;50.096;8.448;2023-06-10T11:10:09;35.90;99.90
31387;DHT22;69978;50.096;8.448;2023-06-10T11:15:09;35.90;99.90
31387;DHT22;69978;50.096;8.448;2023-06-10T11:17:35;36.40;99.90
31387;DHT22;69978;50.096;8.448;2023-06-10T11:20:01;36.80;99.90
31387;DHT22;69978;50.096;8.448;2023-06-10T11:22:26;36.60;99.90
31387;DHT22;69978;50.096;8.448;2023-06-10T11:24:52;36.90;99.90
31387;DHT22;69978;50.096;8.448;2023-06-10T11:32:32;37.10;99.90
31387;DHT22;69978;50.096;8.448;2023-06-10T11:34:59;37.50;99.90
31387;DHT22;69978;50.096;8.448;2023-06-10T11:37:25;37.50;99.90
31387;DHT22;69978;50.096;8.448;2023-06-10T11:39:57;37.20;99.90
31387;DHT22;69978;50.096;8.448;2023-06-10T11:42:23;37.50;99.90
31387;DHT22;69978;50.096;8.448;2023-06-10T11:44:53;37.70;99.90
31387;DHT22;69978;50.096;8.448;2023-06-10T11:47:19;37.80;99.90
31387;DHT22;69978;50.096;8.448;2023-06-10T11:49:46;38.20;99.90
31387;DHT22;69978;50.096;8.448;2023-06-10T11:52:30;37.90;99.90
31387;DHT22;69978;50.096;8.448;2023-06-10T11:54:57;37.70;98.70
31387;DHT22;69978;50.096;8.448;2023-06-10T11:57:23;38.10;98.30
31387;DHT22;69978;50.096;8.448;2023-06-10T11:59:49;37.80;97.40
31387;DHT22;69978;50.096;8.448;2023-06-10T12:02:15;37.60;98.10
31387;DHT22;69978;50.096;8.448;2023-06-10T12:04:41;37.40;98.70
31387;DHT22;69978;50.096;8.448;2023-06-10T12:07:07;37.50;96.90
31387;DHT22;69978;50.096;8.448;2023-06-10T12:09:32;38.00;98.10
31387;DHT22;69978;50.096;8.448;2023-06-10T12:12:03;38.10;97.40
31387;DHT22;69978;50.096;8.448;2023-06-10T12:14:55;37.90;97.10
31387;DHT22;69978;50.096;8.448;2023-06-10T12:17:36;37.90;95.70
31387;DHT22;69978;50.096;8.448;2023-06-10T12:20:12;37.80;96.90
31387;DHT22;69978;50.096;8.448;2023-06-10T12:22:49;37.80;96.20
31387;DHT22;69978;50.096;8.448;2023-06-10T12:25:14;38.20;96.60
31387;DHT22;69978;50.096;8.448;2023-06-10T12:27:50;38.20;95.20
31387;DHT22;69978;50.096;8.448;2023-06-10T12:30:19;38.00;95.80
31387;DHT22;69978;50.096;8.448;2023-06-10T12:32:46;38.10;95.00
31387;DHT22;69978;50.096;8.448;2023-06-10T12:35:16;38.10;96.30
31387;DHT22;69978;50.096;8.448;2023-06-10T12:38:01;38.40;95.80
31387;DHT22;69978;50.096;8.448;2023-06-10T12:40:37;38.60;95.70
31387;DHT22;69978;50.096;8.448;2023-06-10T12:43:04;38.50;96.40
31387;DHT22;69978;50.096;8.448;2023-06-10T12:48:10;38.80;95.40
31387;DHT22;69978;50.096;8.448;2023-06-10T12:50:40;38.70;94.70
31387;DHT22;69978;50.096;8.448;2023-06-10T12:53:06;39.00;94.40
31387;DHT22;69978;50.096;8.448;2023-06-10T12:55:32;39.20;94.30
31387;DHT22;69978;50.096;8.448;2023-06-10T12:57:59;39.50;93.70
31387;DHT22;69978;50.096;8.448;2023-06-10T13:00:25;39.00;94.00
31387;DHT22;69978;50.096;8.448;2023-06-10T13:02:54;39.10;95.00
31387;DHT22;69978;50.096;8.448;2023-06-10T13:05:20;39.50;93.70
31387;DHT22;69978;50.096;8.448;2023-06-10T13:07:46;39.60;93.00
31387;DHT22;69978;50.096;8.448;2023-06-10T13:10:16;39.40;92.70
31387;DHT22;69978;50.096;8.448;2023-06-10T13:12:45;39.70;93.90
31387;DHT22;69978;50.096;8.448;2023-06-10T13:15:11;39.50;93.60
31387;DHT22;69978;50.096;8.448;2023-06-10T13:17:38;39.20;92.00
31387;DHT22;69978;50.096;8.448;2023-06-10T13:20:05;38.70;92.30
31387;DHT22;69978;50.096;8.448;2023-06-10T13:22:31;38.70;92.70
31387;DHT22;69978;50.096;8.448;2023-06-10T13:25:05;39.10;92.20
31387;DHT22;69978;50.096;8.448;2023-06-10T13:27:32;39.20;91.90
31387;DHT22;69978;50.096;8.448;2023-06-10T13:29:57;39.30;92.90
31387;DHT22;69978;50.096;8.448;2023-06-10T13:32:23;39.20;93.30
31387;DHT22;69978;50.096;8.448;2023-06-10T13:34:49;39.00;92.40
31387;DHT22;69978;50.096;8.448;2023-06-10T13:37:18;39.20;91.10
31387;DHT22;69978;50.096;8.448;2023-06-10T13:39:45;38.80;91.10
31387;DHT22;69978;50.096;8.448;2023-06-10T13:42:13;38.80;91.20
31387;DHT22;69978;50.096;8.448;2023-06-10T13:44:39;38.70;90.90
31387;DHT22;69978;50.096;8.448;2023-06-10T13:47:05;38.60;91.50
31387;DHT22;69978;50.096;8.448;2023-06-10T13:49:31;38.40;92.80
31387;DHT22;69978;50.096;8.448;2023-06-10T13:51:56;38.50;93.70
31387;DHT22;69978;50.096;8.448;2023-06-10T13:54:22;38.90;92.30
31387;DHT22;69978;50.096;8.448;2023-06-10T13:56:48;38.80;92.70
31387;DHT22;69978;50.096;8.448;2023-06-10T13:59:13;38.50;92.30
31387;DHT22;69978;50.096;8.448;2023-06-10T14:01:39;38.40;92.60
31387;DHT22;69978;50.096;8.448;2023-06-10T14:04:06;38.60;92.60
31387;DHT22;69978;50.096;8.448;2023-06-10T14:06:32;38.70;93.00
31387;DHT22;69978;50.096;8.448;2023-06-10T14:09:01;38.90;92.50
31387;DHT22;69978;50.096;8.448;2023-06-10T14:11:27;38.90;92.20
31387;DHT22;69978;50.096;8.448;2023-06-10T14:13:52;38.60;91.60
31387;DHT22;69978;50.096;8.448;2023-06-10T14:16:18;38.50;92.70
31387;DHT22;69978;50.096;8.448;2023-06-10T14:18:44;38.80;93.00
31387;DHT22;69978;50.096;8.448;2023-06-10T14:21:09;38.70;92.90
31387;DHT22;69978;50.096;8.448;2023-06-10T14:23:35;38.50;93.00
31387;DHT22;69978;50.096;8.448;2023-06-10T14:26:00;38.20;92.40
31387;DHT22;69978;50.096;8.448;2023-06-10T14:28:28;38.10;92.60
31387;DHT22;69978;50.096;8.448;2023-06-10T14:30:54;37.50;93.10
31387;DHT22;69978;50.096;8.448;2023-06-10T14:33:20;37.50;93.30
31387;DHT22;69978;50.096;8.448;2023-06-10T14:35:45;37.50;93.60
31387;DHT22;69978;50.096;8.448;2023-06-10T14:38:11;37.50;93.60
31387;DHT22;69978;50.096;8.448;2023-06-10T14:40:36;37.60;93.20
31387;DHT22;69978;50.096;8.448;2023-06-10T14:43:02;37.70;92.10
31387;DHT22;69978;50.096;8.448;2023-06-10T14:45:38;37.30;92.10
31387;DHT22;69978;50.096;8.448;2023-06-10T14:48:05;36.90;92.10
31387;DHT22;69978;50.096;8.448;2023-06-10T14:50:31;37.10;92.40
31387;DHT22;69978;50.096;8.448;2023-06-10T14:52:58;36.90;92.30
31387;DHT22;69978;50.096;8.448;2023-06-10T14:55:23;36.80;92.80
31387;DHT22;69978;50.096;8.448;2023-06-10T14:57:49;36.60;92.10
31387;DHT22;69978;50.096;8.448;2023-06-10T15:00:15;36.40;92.70
31387;DHT22;69978;50.096;8.448;2023-06-10T15:02:44;36.40;92.30
31387;DHT22;69978;50.096;8.448;2023-06-10T15:05:10;36.40;92.30
31387;DHT22;69978;50.096;8.448;2023-06-10T15:07:35;35.90;92.20
31387;DHT22;69978;50.096;8.448;2023-06-10T15:10:01;35.50;93.10
31387;DHT22;69978;50.096;8.448;2023-06-10T15:12:27;35.50;93.80
31387;DHT22;69978;50.096;8.448;2023-06-10T15:14:53;35.50;93.40
31387;DHT22;69978;50.096;8.448;2023-06-10T15:17:18;35.40;93.70
31387;DHT22;69978;50.096;8.448;2023-06-10T15:19:44;35.30;93.00
31387;DHT22;69978;50.096;8.448;2023-06-10T15:22:09;35.40;94.00
31387;DHT22;69978;50.096;8.448;2023-06-10T15:24:37;35.20;93.80
31387;DHT22;69978;50.096;8.448;2023-06-10T15:27:02;35.10;94.40
31387;DHT22;69978;50.096;8.448;2023-06-10T15:29:28;35.00;93.20
31387;DHT22;69978;50.096;8.448;2023-06-10T15:31:54;34.90;93.90
31387;DHT22;69978;50.096;8.448;2023-06-10T15:34:19;34.80;93.90
31387;DHT22;69978;50.096;8.448;2023-06-10T15:36:45;34.70;94.40
31387;DHT22;69978;50.096;8.448;2023-06-10T15:39:10;34.60;93.90
31387;DHT22;69978;50.096;8.448;2023-06-10T15:41:36;34.40;94.40
31387;DHT22;69978;50.096;8.448;2023-06-10T15:44:01;34.50;94.40